Conquest, Canada
Current Conditions -  °F | °C
As of 8:00 AM on Wednesday 22 Oct 2014 (Local Time) from CYXE Reporting Station
Rain Showers Rain Showers  
Wind Chill: 41°   Ceiling: 7000
Heat Index: 46°   Visibility: 15mi
Dew Point: 45°   Wind: 10mph
Humidity: 93%   Direction: 300°WNW
Pressure: 29.7"   Gusts: NA
Location:  51.53°N, 107.25°W
Report Text: CYXE 221400Z 30009KT 15SM -SHRA OVC070 08/07 A2970 RMK AC8 SLP071
Loading
Personal Weather Stations






























Interactive Weather Map
Tropical Storm Tracking
New forecast layout! Learn more

10-Day Weather Forecast

Advertisements
Track Severe Weather on mobile